AZU9842 SBKP-LETL
Flight info
| Callsign | AZU9842 |
|---|---|
| Flight time | N/A |
| Altitude | 41000 |
| Route | KONVI UZ23 OGSOO UZ35 ISKAG UZ14 AMBET UN857 GUNET N857 DEREV/N0438F400 N857 LZR N871 KORAL UG5 SONSO UN871 OSDAM UM985 BARPA M985 MAMIS DCT MINGU |
| Aircraft | A339/H-SADE1E2E3GHIJ1J3J5M1P2RWXY/LB2D1 |
Departure
| Time | 2026-05-09 11:19 |
|---|---|
| Airport | Viracopos International Airport (SBKP) |
Arrival
| Time | N/A |
|---|---|
| Airport | Teruel Airport (LETL) |
| Time | Latitude | Longitude | Altitude | Speed | Heading |
|---|---|---|---|---|---|
| 2026-05-09 11:06 | -23.00603 | -47.14315 | 2154 ft | 0 kts | 218° |
| 2026-05-09 11:11 | -23.00602 | -47.14315 | 2100 ft | 0 kts | 218° |
| 2026-05-09 11:11 | -23.00601 | -47.14313 | 2100 ft | 0 kts | 218° |
| 2026-05-09 11:11 | -23.00599 | -47.14312 | 2100 ft | 0 kts | 218° |
| 2026-05-09 11:12 | -23.00578 | -47.14294 | 2156 ft | 0 kts | 221° |
| 2026-05-09 11:12 | -23.00563 | -47.14280 | 2154 ft | 4 kts | 239° |
| 2026-05-09 11:12 | -23.00558 | -47.14274 | 2154 ft | 1 kts | 254° |
| 2026-05-09 11:12 | -23.00554 | -47.14267 | 2154 ft | 0 kts | 285° |
| 2026-05-09 11:15 | -23.00543 | -47.14274 | 2156 ft | 4 kts | 322° |
| 2026-05-09 11:15 | -23.00473 | -47.14323 | 2157 ft | 17 kts | 327° |
| 2026-05-09 11:15 | -23.00391 | -47.14416 | 2158 ft | 17 kts | 306° |
| 2026-05-09 11:16 | -23.00315 | -47.14518 | 2156 ft | 17 kts | 308° |
| 2026-05-09 11:16 | -23.00241 | -47.14623 | 2156 ft | 18 kts | 308° |
| 2026-05-09 11:16 | -23.00165 | -47.14729 | 2154 ft | 18 kts | 308° |
| 2026-05-09 11:16 | -23.00085 | -47.14798 | 2156 ft | 14 kts | 339° |
| 2026-05-09 11:17 | -22.99992 | -47.14795 | 2157 ft | 13 kts | 20° |
| 2026-05-09 11:17 | -22.99915 | -47.14741 | 2154 ft | 14 kts | 35° |
| 2026-05-09 11:17 | -22.99870 | -47.14685 | 2159 ft | 3 kts | 83° |
| 2026-05-09 11:17 | -22.99890 | -47.14643 | 2154 ft | 0 kts | 131° |
| 2026-05-09 11:18 | -22.99898 | -47.14630 | 2155 ft | 13 kts | 126° |
| 2026-05-09 11:18 | -23.00124 | -47.14311 | 2154 ft | 96 kts | 128° |
| 2026-05-09 11:18 | -23.00692 | -47.13515 | 2155 ft | 166 kts | 128° |
| 2026-05-09 11:18 | -23.01471 | -47.12443 | 2616 ft | 187 kts | 127° |
| 2026-05-09 11:19 | -23.02307 | -47.11325 | 3368 ft | 191 kts | 124° |
| 2026-05-09 11:19 | -23.03173 | -47.10191 | 3972 ft | 204 kts | 123° |
| 2026-05-09 11:19 | -23.04090 | -47.08927 | 4461 ft | 222 kts | 123° |
| 2026-05-09 11:19 | -23.04834 | -47.07421 | 4939 ft | 228 kts | 98° |
| 2026-05-09 11:20 | -23.04863 | -47.05690 | 5383 ft | 237 kts | 71° |
| 2026-05-09 11:20 | -23.04594 | -47.04751 | 5592 ft | 243 kts | 62° |
| 2026-05-09 11:20 | -23.04319 | -47.04073 | 5719 ft | 251 kts | 58° |
| 2026-05-09 11:20 | -23.03472 | -47.02333 | 5995 ft | 269 kts | 55° |
| 2026-05-09 11:21 | -23.02555 | -47.00489 | 6390 ft | 284 kts | 57° |
| 2026-05-09 11:21 | -23.01681 | -46.98581 | 7095 ft | 287 kts | 59° |
| 2026-05-09 11:21 | -23.00837 | -46.96604 | 7770 ft | 291 kts | 60° |
| 2026-05-09 11:21 | -23.00010 | -46.94584 | 8480 ft | 295 kts | 61° |
| 2026-05-09 11:22 | -22.99176 | -46.92517 | 9126 ft | 301 kts | 62° |
| 2026-05-09 11:22 | -22.98339 | -46.90432 | 9916 ft | 303 kts | 62° |
| 2026-05-09 11:22 | -22.97487 | -46.88321 | 10451 ft | 313 kts | 62° |
| 2026-05-09 11:22 | -22.96573 | -46.86087 | 10641 ft | 334 kts | 62° |
| 2026-05-09 11:23 | -22.95599 | -46.83709 | 10860 ft | 353 kts | 62° |
| 2026-05-09 11:23 | -22.94600 | -46.81255 | 11427 ft | 357 kts | 62° |
| 2026-05-09 11:23 | -22.93594 | -46.78781 | 12060 ft | 360 kts | 62° |
| 2026-05-09 11:23 | -22.92578 | -46.76283 | 12669 ft | 363 kts | 62° |
| 2026-05-09 11:24 | -22.91551 | -46.73763 | 13264 ft | 366 kts | 63° |
| 2026-05-09 11:24 | -22.90514 | -46.71223 | 13868 ft | 369 kts | 63° |
| 2026-05-09 11:24 | -22.89469 | -46.68669 | 14397 ft | 372 kts | 62° |
| 2026-05-09 11:24 | -22.88416 | -46.66093 | 14897 ft | 375 kts | 62° |
| 2026-05-09 11:25 | -22.87368 | -46.63529 | 15400 ft | 378 kts | 62° |
| 2026-05-09 11:25 | -22.86298 | -46.60916 | 15914 ft | 380 kts | 62° |
| 2026-05-09 11:25 | -22.85219 | -46.58282 | 16395 ft | 384 kts | 62° |
| 2026-05-09 11:25 | -22.84130 | -46.55629 | 16923 ft | 386 kts | 62° |
| 2026-05-09 11:26 | -22.83034 | -46.52960 | 17387 ft | 389 kts | 62° |
| 2026-05-09 11:26 | -22.81928 | -46.50261 | 17867 ft | 393 kts | 62° |
| 2026-05-09 11:26 | -22.80816 | -46.47551 | 18383 ft | 394 kts | 62° |
| 2026-05-09 11:26 | -22.79691 | -46.44814 | 18753 ft | 399 kts | 62° |
| 2026-05-09 11:27 | -22.78554 | -46.42054 | 19190 ft | 402 kts | 62° |
| 2026-05-09 11:27 | -22.77411 | -46.39278 | 19607 ft | 405 kts | 62° |
| 2026-05-09 11:27 | -22.76258 | -46.36478 | 20031 ft | 408 kts | 62° |
| 2026-05-09 11:27 | -22.75094 | -46.33657 | 20447 ft | 412 kts | 62° |
| 2026-05-09 11:28 | -22.73937 | -46.30852 | 20845 ft | 415 kts | 62° |
| 2026-05-09 11:28 | -22.72753 | -46.27982 | 21271 ft | 419 kts | 62° |
| 2026-05-09 11:28 | -22.71545 | -46.25059 | 21726 ft | 421 kts | 62° |
| 2026-05-09 11:28 | -22.70356 | -46.22182 | 22165 ft | 424 kts | 62° |
| 2026-05-09 11:29 | -22.69007 | -46.19326 | 22488 ft | 426 kts | 53° |
| 2026-05-09 11:29 | -22.67242 | -46.16766 | 22994 ft | 422 kts | 44° |
| 2026-05-09 11:29 | -22.65122 | -46.14582 | 23425 ft | 421 kts | 34° |
| 2026-05-09 11:29 | -22.62827 | -46.12598 | 23866 ft | 423 kts | 34° |
| 2026-05-09 11:30 | -22.60530 | -46.10591 | 24241 ft | 426 kts | 34° |
| 2026-05-09 11:30 | -22.58220 | -46.08559 | 24652 ft | 429 kts | 34° |
| 2026-05-09 11:30 | -22.55895 | -46.06508 | 25042 ft | 432 kts | 34° |
| 2026-05-09 11:30 | -22.53553 | -46.04439 | 25436 ft | 435 kts | 34° |
| 2026-05-09 11:31 | -22.51201 | -46.02363 | 25827 ft | 438 kts | 34° |
| 2026-05-09 11:31 | -22.48827 | -46.00268 | 26203 ft | 441 kts | 34° |
| 2026-05-09 11:31 | -22.46468 | -45.98189 | 26589 ft | 444 kts | 34° |
| 2026-05-09 11:31 | -22.44062 | -45.96069 | 26976 ft | 447 kts | 34° |
| 2026-05-09 11:32 | -22.41635 | -45.93931 | 27346 ft | 450 kts | 34° |
| 2026-05-09 11:32 | -22.39192 | -45.91779 | 27717 ft | 453 kts | 34° |
| 2026-05-09 11:32 | -22.36735 | -45.89617 | 28085 ft | 456 kts | 35° |
| 2026-05-09 11:32 | -22.34270 | -45.87447 | 28454 ft | 459 kts | 35° |
| 2026-05-09 11:33 | -22.31810 | -45.85283 | 28808 ft | 462 kts | 35° |
| 2026-05-09 11:33 | -22.29311 | -45.83089 | 29167 ft | 465 kts | 35° |
| 2026-05-09 11:33 | -22.24237 | -45.78667 | 29901 ft | 471 kts | 34° |
| 2026-05-09 11:34 | -22.21667 | -45.76450 | 30255 ft | 474 kts | 34° |
| 2026-05-09 11:34 | -22.19076 | -45.74218 | 30599 ft | 477 kts | 34° |
| 2026-05-09 11:34 | -22.16480 | -45.71978 | 30959 ft | 479 kts | 34° |
| 2026-05-09 11:34 | -22.13874 | -45.69728 | 31303 ft | 481 kts | 34° |
| 2026-05-09 11:35 | -22.11253 | -45.67468 | 31655 ft | 484 kts | 34° |
| 2026-05-09 11:35 | -22.08615 | -45.65193 | 31996 ft | 486 kts | 34° |
| 2026-05-09 11:35 | -22.05996 | -45.62934 | 32322 ft | 488 kts | 34° |
| 2026-05-09 11:35 | -22.03337 | -45.60642 | 32642 ft | 491 kts | 34° |
| 2026-05-09 11:36 | -22.00672 | -45.58346 | 32911 ft | 493 kts | 34° |
| 2026-05-09 11:36 | -21.97982 | -45.56029 | 33178 ft | 494 kts | 34° |
| 2026-05-09 11:36 | -21.95290 | -45.53714 | 33396 ft | 496 kts | 35° |
| 2026-05-09 11:36 | -21.92589 | -45.51390 | 33605 ft | 497 kts | 35° |
| 2026-05-09 11:37 | -21.89883 | -45.49064 | 33817 ft | 497 kts | 35° |
| 2026-05-09 11:37 | -21.87173 | -45.46735 | 34066 ft | 497 kts | 35° |
| 2026-05-09 11:37 | -21.84474 | -45.44417 | 34315 ft | 496 kts | 34° |
| 2026-05-09 11:37 | -21.81775 | -45.42099 | 34540 ft | 495 kts | 34° |
| 2026-05-09 11:38 | -21.79114 | -45.39817 | 34759 ft | 495 kts | 34° |
| 2026-05-09 11:38 | -21.76418 | -45.37505 | 34964 ft | 495 kts | 34° |
| 2026-05-09 11:38 | -21.73728 | -45.35199 | 35172 ft | 494 kts | 34° |
| 2026-05-09 11:38 | -21.71039 | -45.32896 | 35384 ft | 494 kts | 34° |
| 2026-05-09 11:39 | -21.68354 | -45.30597 | 35599 ft | 494 kts | 34° |
| 2026-05-09 11:39 | -21.65667 | -45.28297 | 35788 ft | 494 kts | 34° |
| 2026-05-09 11:39 | -21.62977 | -45.25996 | 36002 ft | 493 kts | 34° |
| 2026-05-09 11:40 | -21.57602 | -45.21402 | 36330 ft | 494 kts | 34° |
| 2026-05-09 11:40 | -21.54915 | -45.19107 | 36552 ft | 493 kts | 34° |
| 2026-05-09 11:40 | -21.52235 | -45.16818 | 36777 ft | 492 kts | 34° |
| 2026-05-09 11:40 | -21.49552 | -45.14527 | 36982 ft | 492 kts | 34° |
| 2026-05-09 11:41 | -21.46866 | -45.12237 | 37172 ft | 492 kts | 34° |
| 2026-05-09 11:41 | -21.44183 | -45.09950 | 37373 ft | 492 kts | 34° |
| 2026-05-09 11:41 | -21.41507 | -45.07670 | 37582 ft | 491 kts | 34° |
| 2026-05-09 11:41 | -21.38832 | -45.05393 | 37773 ft | 491 kts | 34° |
| 2026-05-09 11:42 | -21.36158 | -45.03117 | 37962 ft | 491 kts | 34° |
| 2026-05-09 11:42 | -21.33481 | -45.00839 | 38163 ft | 491 kts | 34° |
| 2026-05-09 11:42 | -21.30800 | -44.98560 | 38364 ft | 490 kts | 34° |
| 2026-05-09 11:42 | -21.28129 | -44.96288 | 38546 ft | 490 kts | 34° |
| 2026-05-09 11:43 | -21.25459 | -44.94020 | 38728 ft | 490 kts | 33° |
| 2026-05-09 11:43 | -21.22783 | -44.91746 | 38889 ft | 490 kts | 33° |
| 2026-05-09 11:43 | -21.20145 | -44.89507 | 39040 ft | 490 kts | 33° |
| 2026-05-09 11:43 | -21.17478 | -44.87245 | 39203 ft | 489 kts | 33° |
| 2026-05-09 11:44 | -21.14804 | -44.84977 | 39344 ft | 489 kts | 33° |
| 2026-05-09 11:44 | -21.12138 | -44.82718 | 39494 ft | 489 kts | 33° |
| 2026-05-09 11:44 | -21.09468 | -44.80456 | 39636 ft | 489 kts | 34° |
| 2026-05-09 11:44 | -21.06801 | -44.78198 | 39802 ft | 488 kts | 33° |
| 2026-05-09 11:45 | -21.04131 | -44.75944 | 39929 ft | 488 kts | 33° |
| 2026-05-09 11:45 | -21.01405 | -44.73799 | 40066 ft | 486 kts | 31° |
| 2026-05-09 11:45 | -20.98638 | -44.71722 | 40221 ft | 485 kts | 30° |
| 2026-05-09 11:45 | -20.95865 | -44.69652 | 40355 ft | 485 kts | 30° |
| 2026-05-09 11:46 | -20.93102 | -44.67574 | 40498 ft | 485 kts | 30° |
| 2026-05-09 11:46 | -20.90386 | -44.65515 | 40642 ft | 485 kts | 31° |
| 2026-05-09 11:46 | -20.87600 | -44.63395 | 40774 ft | 485 kts | 31° |
| 2026-05-09 11:46 | -20.84893 | -44.61331 | 40910 ft | 485 kts | 31° |
| 2026-05-09 11:47 | -20.82152 | -44.59241 | 41032 ft | 484 kts | 31° |
| 2026-05-09 11:47 | -20.79405 | -44.57147 | 41175 ft | 484 kts | 31° |
| 2026-05-09 11:47 | -20.76659 | -44.55054 | 41170 ft | 483 kts | 31° |
| 2026-05-09 11:48 | -20.71185 | -44.50882 | 41171 ft | 482 kts | 31° |
| 2026-05-09 11:48 | -20.65713 | -44.46718 | 41172 ft | 482 kts | 31° |
| 2026-05-09 11:49 | -20.60249 | -44.42562 | 41175 ft | 483 kts | 31° |
| 2026-05-09 11:49 | -20.54746 | -44.38383 | 41175 ft | 487 kts | 31° |
| 2026-05-09 11:50 | -20.49200 | -44.34175 | 41175 ft | 490 kts | 31° |
| 2026-05-09 11:50 | -20.43662 | -44.29972 | 41176 ft | 491 kts | 31° |
| 2026-05-09 11:51 | -20.38140 | -44.25633 | 41178 ft | 493 kts | 33° |
| 2026-05-09 11:51 | -20.32635 | -44.21227 | 41178 ft | 494 kts | 32° |
| 2026-05-09 11:52 | -20.27160 | -44.16876 | 41179 ft | 494 kts | 32° |
| 2026-05-09 11:52 | -20.21640 | -44.12504 | 41178 ft | 494 kts | 32° |
| 2026-05-09 11:53 | -20.16113 | -44.08132 | 41152 ft | 495 kts | 32° |
| 2026-05-09 11:53 | -20.10570 | -44.03753 | 41157 ft | 495 kts | 32° |
| 2026-05-09 11:54 | -20.05071 | -43.99413 | 41164 ft | 495 kts | 32° |
| 2026-05-09 11:54 | -19.99526 | -43.95051 | 41170 ft | 495 kts | 32° |
| 2026-05-09 11:55 | -19.94075 | -43.90575 | 41175 ft | 498 kts | 40° |
| 2026-05-09 11:56 | -19.87185 | -43.74003 | 41160 ft | 515 kts | 89° |
| 2026-05-09 11:56 | -19.87398 | -43.70260 | 41151 ft | 515 kts | 98° |
| 2026-05-09 11:57 | -19.87582 | -43.62691 | 41142 ft | 513 kts | 79° |
| 2026-05-09 11:57 | -19.85332 | -43.55583 | 41138 ft | 506 kts | 58° |
| 2026-05-09 11:58 | -19.81136 | -43.49688 | 41138 ft | 498 kts | 40° |
| 2026-05-09 11:58 | -19.75748 | -43.45157 | 41136 ft | 494 kts | 33° |
| 2026-05-09 11:59 | -19.70281 | -43.40731 | 41139 ft | 494 kts | 33° |
| 2026-05-09 11:59 | -19.64802 | -43.36279 | 41142 ft | 495 kts | 33° |
| 2026-05-09 12:00 | -19.59362 | -43.31867 | 41140 ft | 495 kts | 33° |
| 2026-05-09 12:00 | -19.53886 | -43.27432 | 41143 ft | 495 kts | 33° |
| 2026-05-09 12:01 | -19.49332 | -43.23746 | 41148 ft | 495 kts | 33° |
| 2026-05-09 12:01 | -19.43854 | -43.19318 | 41146 ft | 495 kts | 33° |
| 2026-05-09 12:02 | -19.38367 | -43.14885 | 41147 ft | 495 kts | 33° |
| 2026-05-09 12:02 | -19.32880 | -43.10455 | 41147 ft | 496 kts | 33° |
| 2026-05-09 12:03 | -19.27389 | -43.06027 | 41146 ft | 495 kts | 33° |
| 2026-05-09 12:03 | -19.21927 | -43.01624 | 41140 ft | 496 kts | 33° |
| 2026-05-09 12:04 | -19.16428 | -42.97198 | 41149 ft | 496 kts | 33° |
| 2026-05-09 12:04 | -19.10959 | -42.92798 | 41155 ft | 496 kts | 33° |
| 2026-05-09 12:05 | -19.05463 | -42.88380 | 41130 ft | 496 kts | 33° |
| 2026-05-09 12:05 | -18.99959 | -42.83961 | 41126 ft | 496 kts | 33° |
| 2026-05-09 12:06 | -18.94457 | -42.79547 | 41126 ft | 496 kts | 33° |
| 2026-05-09 12:06 | -18.88952 | -42.75134 | 41144 ft | 496 kts | 33° |
| 2026-05-09 12:07 | -18.83445 | -42.70725 | 41142 ft | 496 kts | 33° |
| 2026-05-09 12:07 | -18.77973 | -42.66347 | 41142 ft | 496 kts | 33° |
| 2026-05-09 12:08 | -18.72456 | -42.61938 | 41145 ft | 497 kts | 33° |
| 2026-05-09 12:08 | -18.66943 | -42.57534 | 41145 ft | 497 kts | 33° |
| 2026-05-09 12:09 | -18.61437 | -42.53139 | 41144 ft | 496 kts | 33° |
| 2026-05-09 12:09 | -18.55920 | -42.48738 | 41140 ft | 496 kts | 33° |
| 2026-05-09 12:10 | -18.44940 | -42.39991 | 41135 ft | 496 kts | 33° |
| 2026-05-09 12:11 | -18.39429 | -42.35606 | 41132 ft | 496 kts | 33° |
| 2026-05-09 12:11 | -18.33918 | -42.31225 | 41133 ft | 496 kts | 33° |
| 2026-05-09 12:12 | -18.28403 | -42.26845 | 41130 ft | 496 kts | 33° |
| 2026-05-09 12:12 | -18.22895 | -42.22476 | 41135 ft | 496 kts | 33° |
| 2026-05-09 12:13 | -18.17412 | -42.18128 | 41139 ft | 496 kts | 33° |
| 2026-05-09 12:13 | -18.11896 | -42.13759 | 41139 ft | 496 kts | 34° |
| 2026-05-09 12:14 | -18.06403 | -42.09411 | 41133 ft | 496 kts | 34° |
| 2026-05-09 12:14 | -18.00891 | -42.05052 | 41138 ft | 495 kts | 33° |
| 2026-05-09 12:15 | -17.95371 | -42.00691 | 41142 ft | 495 kts | 34° |
| 2026-05-09 12:15 | -17.89862 | -41.96341 | 41139 ft | 495 kts | 34° |
| 2026-05-09 12:16 | -17.84354 | -41.91994 | 41142 ft | 495 kts | 34° |
| 2026-05-09 12:16 | -17.78872 | -41.87673 | 41139 ft | 495 kts | 34° |
| 2026-05-09 12:17 | -17.73351 | -41.83326 | 41146 ft | 495 kts | 34° |
| 2026-05-09 12:17 | -17.67840 | -41.78987 | 41143 ft | 495 kts | 34° |
| 2026-05-09 12:18 | -17.62325 | -41.74650 | 41142 ft | 495 kts | 33° |
| 2026-05-09 12:18 | -17.56846 | -41.70344 | 41141 ft | 495 kts | 34° |
| 2026-05-09 12:19 | -17.51321 | -41.66005 | 41144 ft | 495 kts | 33° |
| 2026-05-09 12:19 | -17.45798 | -41.61672 | 41144 ft | 496 kts | 34° |
| 2026-05-09 12:20 | -17.40262 | -41.57331 | 41145 ft | 496 kts | 33° |
| 2026-05-09 12:20 | -17.34768 | -41.53027 | 41146 ft | 496 kts | 33° |
| 2026-05-09 12:21 | -17.29235 | -41.48694 | 41143 ft | 496 kts | 34° |
| 2026-05-09 12:21 | -17.23704 | -41.44365 | 41144 ft | 497 kts | 33° |
| 2026-05-09 12:22 | -17.18162 | -41.40032 | 41143 ft | 497 kts | 33° |
| 2026-05-09 12:22 | -17.12622 | -41.35705 | 41148 ft | 497 kts | 33° |
| 2026-05-09 12:23 | -17.07114 | -41.31405 | 41149 ft | 497 kts | 33° |
| 2026-05-09 12:23 | -17.01569 | -41.27079 | 41143 ft | 497 kts | 33° |
| 2026-05-09 12:24 | -16.96022 | -41.22756 | 41145 ft | 497 kts | 33° |
| 2026-05-09 12:24 | -16.90464 | -41.18426 | 41141 ft | 497 kts | 33° |
| 2026-05-09 12:25 | -16.84952 | -41.14136 | 41138 ft | 497 kts | 33° |
| 2026-05-09 12:25 | -16.79396 | -41.09815 | 41141 ft | 498 kts | 33° |
| 2026-05-09 12:26 | -16.73836 | -41.05495 | 41139 ft | 498 kts | 33° |
| 2026-05-09 12:26 | -16.68276 | -41.01176 | 41136 ft | 498 kts | 33° |
| 2026-05-09 12:27 | -16.62713 | -40.96859 | 41137 ft | 498 kts | 33° |
| 2026-05-09 12:27 | -16.57182 | -40.92571 | 41137 ft | 498 kts | 33° |
| 2026-05-09 12:28 | -16.51890 | -40.88470 | 41136 ft | 498 kts | 33° |